Time;durP1;ratioP1;P1;durP2;ratioP2;P2;SDS_P1;SDS_P2;PMS_P1;PMS_P2;Temp;Humidity;BMP_temperature;BMP_pressure;BME280_temperature;BME280_humidity;BME280_pressure;Samples;Min_cycle;Max_cycle;Signal;HPM_P1;HPM_P2
2023/07/28 00:00:35;;;;;;;;;;;;;;;18.22;100.00;100401.59;10417578;28;20453;-66
2023/07/28 00:05:37;;;;;;;;;;;;;;;18.03;100.00;100405.16;10417956;28;19929;-66
2023/07/28 00:10:41;;;;;;;;;;;;;;;18.17;100.00;100394.94;10417394;28;20279;-66
2023/07/28 00:15:43;;;;;;;;;;;;;;;18.18;100.00;100391.28;10417220;28;19932;-66
2023/07/28 00:20:45;;;;;;;;;;;;;;;18.12;100.00;100396.31;10417132;28;19925;-66
2023/07/28 00:25:47;;;;;;;;;;;;;;;18.13;100.00;100387.41;10416481;28;19960;-66
2023/07/28 00:30:50;;;;;;;;;;;;;;;18.15;100.00;100394.22;10417055;28;19932;-66
2023/07/28 00:35:52;;;;;;;;;;;;;;;17.87;100.00;100389.88;10399035;28;19925;-65
2023/07/28 00:40:54;;;;;;;;;;;;;;;18.19;100.00;100390.31;10416648;28;19925;-66
2023/07/28 00:45:56;;;;;;;;;;;;;;;18.11;100.00;100411.41;10416433;28;19925;-66
2023/07/28 00:50:59;;;;;;;;;;;;;;;18.00;100.00;100408.94;10416048;28;19925;-66
2023/07/28 00:56:01;;;;;;;;;;;;;;;18.14;100.00;100408.47;10415908;28;20008;-66
2023/07/28 01:01:04;;;;;;;;;;;;;;;18.35;100.00;100410.03;10373628;28;19929;-66
2023/07/28 01:06:10;;;;;;;;;;;;;;;18.23;100.00;100403.25;10374905;28;20369;-66
2023/07/28 01:11:12;;;;;;;;;;;;;;;18.28;100.00;100408.97;10390025;28;20000;-66
2023/07/28 01:16:17;;;;;;;;;;;;;;;18.11;100.00;100410.56;10389796;28;19925;-67
2023/07/28 01:21:21;;;;;;;;;;;;;;;18.14;100.00;100415.56;10374574;28;20261;-67
2023/07/28 01:26:41;;;;;;;;;;;;;;;18.06;100.00;100405.72;10389697;28;19932;-67
2023/07/28 01:31:44;;;;;;;;;;;;;;;18.02;100.00;100412.25;10389831;28;19932;-67
2023/07/28 01:36:46;;;;;;;;;;;;;;;18.06;100.00;100418.94;10391309;28;19929;-67
2023/07/28 01:41:48;;;;;;;;;;;;;;;18.08;100.00;100418.81;10382593;28;19925;-66
2023/07/28 01:46:51;;;;;;;;;;;;;;;18.24;100.00;100408.41;10397392;28;20419;-66
2023/07/28 01:51:53;;;;;;;;;;;;;;;18.07;100.00;100404.75;10381890;28;20372;-66
2023/07/28 01:56:55;;;;;;;;;;;;;;;18.05;100.00;100417.28;10382691;28;19932;-66
2023/07/28 02:01:58;;;;;;;;;;;;;;;18.01;100.00;100398.19;10422554;28;19947;-66
2023/07/28 02:07:00;;;;;;;;;;;;;;;17.96;100.00;100403.09;10422585;28;19932;-66
2023/07/28 02:12:02;;;;;;;;;;;;;;;17.93;100.00;100398.09;10422067;28;19932;-66
2023/07/28 02:17:05;;;;;;;;;;;;;;;18.23;100.00;100395.31;10422201;28;19933;-66
2023/07/28 02:22:07;;;;;;;;;;;;;;;18.00;100.00;100400.97;10404359;28;19936;-66
2023/07/28 02:27:09;;;;;;;;;;;;;;;18.16;100.00;100400.38;10421538;28;19931;-66
2023/07/28 02:32:11;;;;;;;;;;;;;;;18.13;100.00;100401.47;10421497;28;20019;-66
2023/07/28 02:37:14;;;;;;;;;;;;;;;18.17;100.00;100402.88;10421123;28;19932;-66
2023/07/28 02:42:16;;;;;;;;;;;;;;;18.08;100.00;100411.69;10420912;28;19931;-66
2023/07/28 02:47:19;;;;;;;;;;;;;;;18.07;100.00;100411.81;10420211;28;19932;-66
2023/07/28 02:52:21;;;;;;;;;;;;;;;18.04;100.00;100418.28;10420459;28;19932;-66
2023/07/28 02:57:23;;;;;;;;;;;;;;;18.18;100.00;100422.25;10420349;28;19931;-66
2023/07/28 03:02:25;;;;;;;;;;;;;;;18.19;100.00;100414.16;10420149;28;20340;-66
2023/07/28 03:07:28;;;;;;;;;;;;;;;18.25;100.00;100417.19;10420009;28;20012;-66
2023/07/28 03:12:30;;;;;;;;;;;;;;;18.13;100.00;100417.38;10442388;22;20381;-66
2023/07/28 03:17:32;;;;;;;;;;;;;;;18.11;100.00;100426.47;10461159;28;19925;-66
2023/07/28 03:22:34;;;;;;;;;;;;;;;17.96;100.00;100431.41;10460722;28;20272;-66
2023/07/28 03:27:36;;;;;;;;;;;;;;;18.19;100.00;100434.53;10460556;28;19932;-66
2023/07/28 03:32:39;;;;;;;;;;;;;;;18.19;100.00;100426.56;10460197;28;19928;-66
2023/07/28 03:37:41;;;;;;;;;;;;;;;18.20;100.00;100431.69;10460277;28;19928;-66
2023/07/28 03:42:43;;;;;;;;;;;;;;;18.26;100.00;100440.91;10460418;28;19931;-66
2023/07/28 03:47:45;;;;;;;;;;;;;;;18.35;100.00;100452.44;10459654;28;19924;-66
2023/07/28 03:52:48;;;;;;;;;;;;;;;18.08;100.00;100448.78;10459471;28;19925;-66
2023/07/28 03:57:50;;;;;;;;;;;;;;;18.22;100.00;100458.06;10459304;28;20273;-66
2023/07/28 04:02:52;;;;;;;;;;;;;;;18.35;100.00;100450.59;10458186;28;20008;-66
2023/07/28 04:07:54;;;;;;;;;;;;;;;18.17;100.00;100462.97;10458922;28;20319;-66
2023/07/28 04:12:57;;;;;;;;;;;;;;;18.28;100.00;100456.66;10458517;28;19925;-66
2023/07/28 04:17:59;;;;;;;;;;;;;;;18.33;100.00;100457.03;10458542;28;20467;-66
2023/07/28 04:23:01;;;;;;;;;;;;;;;18.28;100.00;100456.66;10458261;28;19963;-66
2023/07/28 04:28:03;;;;;;;;;;;;;;;18.31;100.00;100470.44;10440943;28;19929;-66
2023/07/28 04:33:06;;;;;;;;;;;;;;;18.14;100.00;100469.41;10458082;28;19970;-66
2023/07/28 04:38:08;;;;;;;;;;;;;;;18.34;100.00;100462.19;10457891;28;19932;-66
2023/07/28 04:43:10;;;;;;;;;;;;;;;18.23;100.00;100466.84;10439998;28;19925;-66
2023/07/28 04:48:12;;;;;;;;;;;;;;;18.46;100.00;100468.16;10457390;28;19931;-66
2023/07/28 04:53:15;;;;;;;;;;;;;;;18.33;100.00;100476.41;10457317;28;20278;-66
2023/07/28 04:58:17;;;;;;;;;;;;;;;18.43;100.00;100483.50;10457164;28;20003;-67
2023/07/28 05:03:19;;;;;;;;;;;;;;;18.48;100.00;100478.59;10457058;28;19929;-67
2023/07/28 05:08:21;;;;;;;;;;;;;;;18.13;100.00;100493.38;10457354;28;20015;-67
2023/07/28 05:13:24;;;;;;;;;;;;;;;18.45;100.00;100495.63;10456478;28;19931;-67
2023/07/28 05:18:26;;;;;;;;;;;;;;;18.42;100.00;100493.25;10457540;28;19925;-67
2023/07/28 05:23:28;;;;;;;;;;;;;;;18.21;100.00;100493.50;10456765;28;19925;-67
2023/07/28 05:28:34;;;;;;;;;;;;;;;18.54;100.00;100488.59;10456612;28;19932;-67
2023/07/28 05:33:38;;;;;;;;;;;;;;;18.63;100.00;100495.69;10456339;28;20390;-67
2023/07/28 05:38:40;;;;;;;;;;;;;;;18.46;100.00;100507.91;10456393;28;19928;-67
2023/07/28 05:43:42;;;;;;;;;;;;;;;18.47;100.00;100517.50;10456406;28;19924;-67
2023/07/28 05:48:45;;;;;;;;;;;;;;;18.59;100.00;100504.06;10456219;28;19925;-67
2023/07/28 05:53:47;;;;;;;;;;;;;;;18.36;100.00;100510.59;10455900;28;20011;-67
2023/07/28 05:58:49;;;;;;;;;;;;;;;18.60;100.00;100524.31;10455884;28;20036;-67
2023/07/28 06:03:55;;;;;;;;;;;;;;;18.48;100.00;100534.28;10455893;28;19924;-66
2023/07/28 06:08:57;;;;;;;;;;;;;;;18.63;100.00;100510.75;10455769;28;20273;-66
2023/07/28 06:13:59;;;;;;;;;;;;;;;18.55;100.00;100525.56;10455496;28;19928;-66
2023/07/28 06:19:04;;;;;;;;;;;;;;;18.77;100.00;100520.03;10455786;28;19925;-66
2023/07/28 06:24:06;;;;;;;;;;;;;;;18.69;100.00;100531.38;10459062;28;20411;-67
2023/07/28 06:29:08;;;;;;;;;;;;;;;18.68;100.00;100529.72;10462868;28;19931;-67
2023/07/28 06:34:10;;;;;;;;;;;;;;;18.91;100.00;100531.00;10444882;28;19925;-67
2023/07/28 06:39:13;;;;;;;;;;;;;;;19.07;100.00;100532.16;10444815;28;20023;-67
2023/07/28 06:44:15;;;;;;;;;;;;;;;19.00;100.00;100539.88;10462198;28;20012;-66
2023/07/28 06:49:18;;;;;;;;;;;;;;;18.67;100.00;100552.72;10462250;28;19925;-67
2023/07/28 06:54:20;;;;;;;;;;;;;;;18.88;100.00;100555.19;10461747;28;19929;-67
2023/07/28 06:59:22;;;;;;;;;;;;;;;18.88;100.00;100557.00;10461967;28;19994;-66
2023/07/28 07:04:24;;;;;;;;;;;;;;;18.87;100.00;100572.06;10461521;28;19924;-65
2023/07/28 07:09:27;;;;;;;;;;;;;;;18.97;100.00;100576.50;10461479;28;20351;-66
2023/07/28 07:14:29;;;;;;;;;;;;;;;19.14;100.00;100586.28;10461161;28;19924;-65
2023/07/28 07:19:31;;;;;;;;;;;;;;;19.34;100.00;100580.88;10460979;28;19924;-66
2023/07/28 07:24:33;;;;;;;;;;;;;;;19.35;100.00;100580.72;10460902;28;19931;-69
2023/07/28 07:29:37;;;;;;;;;;;;;;;19.53;100.00;100593.16;10460854;28;20016;-67
2023/07/28 07:34:39;;;;;;;;;;;;;;;19.71;100.00;100594.00;10460160;28;20294;-67
2023/07/28 07:39:43;;;;;;;;;;;;;;;19.54;100.00;100592.19;10460233;28;19932;-67
2023/07/28 07:44:45;;;;;;;;;;;;;;;19.59;100.00;100592.56;10442751;28;20019;-67
2023/07/28 07:49:47;;;;;;;;;;;;;;;19.54;100.00;100610.78;10459763;28;20019;-66
2023/07/28 07:54:50;;;;;;;;;;;;;;;19.69;100.00;100603.94;10459657;28;19951;-66
2023/07/28 07:59:52;;;;;;;;;;;;;;;19.61;100.00;100606.53;10459483;28;20011;-66
2023/07/28 08:04:55;;;;;;;;;;;;;;;20.03;100.00;100608.56;10459170;28;19925;-66
2023/07/28 08:09:57;;;;;;;;;;;;;;;19.60;100.00;100610.16;10458967;28;20351;-67
2023/07/28 08:15:00;;;;;;;;;;;;;;;19.86;100.00;100623.53;10458490;28;19933;-66
2023/07/28 08:20:02;;;;;;;;;;;;;;;19.91;100.00;100623.09;10458794;28;19925;-66
2023/07/28 08:25:04;;;;;;;;;;;;;;;19.92;100.00;100630.91;10458476;28;19971;-67
2023/07/28 08:30:08;;;;;;;;;;;;;;;19.72;100.00;100629.34;10440395;28;20287;-67
2023/07/28 08:35:11;;;;;;;;;;;;;;;20.09;100.00;100633.69;10457864;28;20265;-67
2023/07/28 08:40:13;;;;;;;;;;;;;;;20.22;100.00;100632.31;10457825;28;19931;-67
2023/07/28 08:45:15;;;;;;;;;;;;;;;20.37;100.00;100623.75;10457588;28;19925;-67
2023/07/28 08:50:18;;;;;;;;;;;;;;;20.30;100.00;100631.53;10457562;28;19959;-67
2023/07/28 08:55:20;;;;;;;;;;;;;;;20.50;100.00;100640.13;10457297;28;20272;-67
2023/07/28 09:00:23;;;;;;;;;;;;;;;20.71;100.00;100642.47;10457415;28;19925;-66
2023/07/28 09:05:25;;;;;;;;;;;;;;;20.67;100.00;100648.25;10439442;28;19932;-65
2023/07/28 09:10:40;;;;;;;;;;;;;;;20.75;100.00;100648.28;10457219;28;19925;-66
2023/07/28 09:15:42;;;;;;;;;;;;;;;20.94;100.00;100642.72;10456552;28;20024;-65
2023/07/28 09:20:44;;;;;;;;;;;;;;;21.42;100.00;100642.25;10456990;28;19931;-66
2023/07/28 09:25:46;;;;;;;;;;;;;;;21.47;100.00;100648.75;10456791;28;19925;-66
2023/07/28 09:30:49;;;;;;;;;;;;;;;21.60;100.00;100639.47;10438853;28;19924;-66
2023/07/28 09:35:52;;;;;;;;;;;;;;;21.70;100.00;100656.13;10456490;28;19932;-66
2023/07/28 09:40:54;;;;;;;;;;;;;;;21.76;100.00;100642.16;10456479;28;19932;-66
2023/07/28 09:45:57;;;;;;;;;;;;;;;22.80;100.00;100640.56;10438862;28;19925;-66
2023/07/28 09:51:11;;;;;;;;;;;;;;;22.88;100.00;100631.72;10456369;28;19939;-66
2023/07/28 09:56:15;;;;;;;;;;;;;;;22.89;99.65;100630.69;10438621;28;19925;-65
2023/07/28 10:01:18;;;;;;;;;;;;;;;23.00;96.24;100632.97;10463187;28;19987;-65
2023/07/28 10:06:22;;;;;;;;;;;;;;;22.82;98.71;100637.72;10446200;28;19929;-66
2023/07/28 10:11:24;;;;;;;;;;;;;;;24.79;91.58;100633.66;10446257;28;19931;-66
2023/07/28 10:16:31;;;;;;;;;;;;;;;25.30;89.13;100632.88;10463296;28;19932;-66
2023/07/28 10:21:33;;;;;;;;;;;;;;;25.05;85.87;100635.03;10463364;28;19924;-66
2023/07/28 10:26:37;;;;;;;;;;;;;;;24.94;84.22;100633.63;10445229;28;19925;-66
2023/07/28 10:31:52;;;;;;;;;;;;;;;24.88;86.08;100639.75;10429083;28;19925;-67
2023/07/28 10:36:58;;;;;;;;;;;;;;;24.02;87.92;100642.75;10462564;28;19924;-66
2023/07/28 10:42:08;;;;;;;;;;;;;;;23.27;91.18;100643.41;10445212;28;20011;-65
2023/07/28 10:47:11;;;;;;;;;;;;;;;24.01;89.49;100643.78;10462459;28;19928;-66
2023/07/28 10:52:14;;;;;;;;;;;;;;;23.69;89.26;100644.84;10462273;28;19960;-65
2023/07/28 10:57:16;;;;;;;;;;;;;;;25.97;80.62;100640.78;10444033;28;20378;-66
2023/07/28 11:02:18;;;;;;;;;;;;;;;24.39;81.03;100646.41;10461670;28;19924;-66
2023/07/28 11:07:21;;;;;;;;;;;;;;;23.97;88.95;100644.31;10443886;28;19960;-66
2023/07/28 11:12:23;;;;;;;;;;;;;;;24.59;86.42;100638.72;10460653;28;20003;-65
2023/07/28 11:17:27;;;;;;;;;;;;;;;24.34;87.31;100640.78;10460978;28;20277;-65
2023/07/28 11:22:29;;;;;;;;;;;;;;;23.97;87.41;100638.97;10443523;28;19925;-66
2023/07/28 11:27:31;;;;;;;;;;;;;;;24.33;82.32;100639.16;10460530;28;19925;-73
2023/07/28 11:32:34;;;;;;;;;;;;;;;23.71;88.69;100648.16;10460630;28;19925;-71
2023/07/28 11:37:37;;;;;;;;;;;;;;;23.72;87.49;100653.31;10426169;28;19985;-71
2023/07/28 11:42:40;;;;;;;;;;;;;;;25.65;77.44;100634.88;10442512;28;19931;-72
2023/07/28 11:47:56;;;;;;;;;;;;;;;25.69;76.75;100639.66;10442102;28;20376;-72
2023/07/28 11:52:58;;;;;;;;;;;;;;;25.59;74.67;100629.25;10459787;28;19978;-72
2023/07/28 11:58:04;;;;;;;;;;;;;;;27.00;72.74;100624.91;10459453;28;20292;-72
2023/07/28 12:03:10;;;;;;;;;;;;;;;26.59;72.05;100639.16;10442035;28;19931;-72
2023/07/28 12:08:13;;;;;;;;;;;;;;;27.29;68.49;100621.16;10441589;28;19925;-72
2023/07/28 12:13:15;;;;;;;;;;;;;;;26.31;72.28;100627.44;10458654;28;19925;-72
2023/07/28 12:18:22;;;;;;;;;;;;;;;25.64;73.45;100635.88;10458869;28;19929;-69
2023/07/28 12:23:28;;;;;;;;;;;;;;;28.81;67.19;100626.72;10457699;28;19924;-69
2023/07/28 12:28:33;;;;;;;;;;;;;;;28.02;66.20;100625.81;10458372;28;19925;-69
2023/07/28 12:33:46;;;;;;;;;;;;;;;26.92;66.15;100631.31;10458170;28;20012;-69
2023/07/28 12:38:51;;;;;;;;;;;;;;;27.85;66.10;100630.75;10458144;28;19928;-69
2023/07/28 12:43:56;;;;;;;;;;;;;;;28.32;68.14;100628.06;10457760;28;19968;-69
2023/07/28 12:49:01;;;;;;;;;;;;;;;27.56;67.09;100623.91;10457842;28;19952;-69
2023/07/28 12:54:04;;;;;;;;;;;;;;;28.02;65.49;100628.50;10457469;28;19935;-69
2023/07/28 12:59:06;;;;;;;;;;;;;;;28.93;63.00;100629.56;10439701;28;19925;-69
2023/07/28 13:04:11;;;;;;;;;;;;;;;29.43;63.77;100632.47;10457416;28;19951;-70
2023/07/28 13:09:13;;;;;;;;;;;;;;;28.08;65.54;100635.75;10457024;28;20016;-69
2023/07/28 13:14:18;;;;;;;;;;;;;;;26.67;65.34;100637.16;10456809;28;19925;-69
2023/07/28 13:19:21;;;;;;;;;;;;;;;26.57;70.39;100638.53;10456707;28;20395;-69
2023/07/28 13:24:23;;;;;;;;;;;;;;;28.72;61.24;100620.75;10456696;28;19925;-68
2023/07/28 13:29:25;;;;;;;;;;;;;;;28.21;64.18;100629.53;10456750;28;19924;-68
2023/07/28 13:34:28;;;;;;;;;;;;;;;29.20;61.89;100616.00;10462773;28;19925;-69
2023/07/28 13:39:30;;;;;;;;;;;;;;;27.49;62.52;100612.28;10464772;28;19932;-68
2023/07/28 13:44:32;;;;;;;;;;;;;;;27.11;66.65;100616.28;10446932;28;19947;-68
2023/07/28 13:49:36;;;;;;;;;;;;;;;26.58;66.21;100618.69;10464688;28;19925;-69
2023/07/28 13:54:52;;;;;;;;;;;;;;;25.89;66.91;100613.03;10464323;28;19964;-69
2023/07/28 13:59:57;;;;;;;;;;;;;;;27.64;68.19;100617.47;10447083;28;19925;-68
2023/07/28 14:05:00;;;;;;;;;;;;;;;28.50;65.67;100609.38;10463822;28;20403;-69
2023/07/28 14:10:02;;;;;;;;;;;;;;;26.16;68.57;100613.28;10463706;28;19931;-69
2023/07/28 14:15:07;;;;;;;;;;;;;;;26.08;70.46;100610.75;10463298;28;19931;-69
2023/07/28 14:20:10;;;;;;;;;;;;;;;25.83;69.45;100610.31;10445613;28;19931;-69
2023/07/28 14:25:12;;;;;;;;;;;;;;;25.65;71.32;100608.06;10463348;28;19925;-68
2023/07/28 14:30:14;;;;;;;;;;;;;;;25.33;74.45;100610.22;10462999;28;19925;-69
2023/07/28 14:35:16;;;;;;;;;;;;;;;25.40;74.33;100608.44;10462666;28;20354;-69
2023/07/28 14:40:19;;;;;;;;;;;;;;;25.93;71.47;100614.31;10462704;28;19931;-69
2023/07/28 14:45:21;;;;;;;;;;;;;;;27.18;64.52;100617.13;10461434;28;20315;-69
2023/07/28 14:50:23;;;;;;;;;;;;;;;25.54;71.38;100623.66;10462168;28;20365;-68
2023/07/28 14:55:26;;;;;;;;;;;;;;;24.98;77.95;100624.22;10461878;28;19924;-69
2023/07/28 15:00:28;;;;;;;;;;;;;;;24.99;74.57;100622.38;10461955;28;19939;-69
2023/07/28 15:05:30;;;;;;;;;;;;;;;26.39;70.23;100622.94;10461722;28;19933;-69
2023/07/28 15:10:32;;;;;;;;;;;;;;;24.66;77.16;100622.75;10461229;28;19987;-68
2023/07/28 15:15:35;;;;;;;;;;;;;;;25.51;73.21;100618.66;10460959;28;19925;-69
2023/07/28 15:20:37;;;;;;;;;;;;;;;25.20;73.16;100617.06;10460972;28;19925;-68
2023/07/28 15:30:46;;;;;;;;;;;;;;;24.78;76.20;100617.75;10336540;28;19932;-69
2023/07/28 15:35:48;;;;;;;;;;;;;;;25.82;72.29;100625.53;10337658;28;19929;-68
2023/07/28 15:40:56;;;;;;;;;;;;;;;26.05;70.55;100622.69;10352522;28;20361;-69
2023/07/28 15:45:59;;;;;;;;;;;;;;;25.86;71.83;100623.34;10337325;28;19933;-69
2023/07/28 15:51:01;;;;;;;;;;;;;;;25.82;71.12;100622.84;10337077;28;19925;-69
2023/07/28 15:56:03;;;;;;;;;;;;;;;25.41;72.00;100618.16;10336010;28;19930;-69
2023/07/28 16:01:05;;;;;;;;;;;;;;;25.39;74.85;100629.06;10337007;28;19932;-69
2023/07/28 16:06:08;;;;;;;;;;;;;;;25.44;72.66;100633.03;10336687;28;19932;-69
2023/07/28 16:11:10;;;;;;;;;;;;;;;24.63;76.19;100617.78;10351473;28;19926;-69
2023/07/28 16:16:12;;;;;;;;;;;;;;;24.09;77.27;100633.00;10336426;28;20013;-68
2023/07/28 16:21:15;;;;;;;;;;;;;;;24.64;76.91;100624.78;10351005;28;20424;-69
2023/07/28 16:26:17;;;;;;;;;;;;;;;23.92;80.49;100626.13;10355783;28;19932;-69
2023/07/28 16:31:19;;;;;;;;;;;;;;;24.02;81.63;100623.19;10376144;28;19940;-69
2023/07/28 16:36:23;;;;;;;;;;;;;;;23.79;86.23;100631.22;10375405;28;20173;-69
2023/07/28 16:41:26;;;;;;;;;;;;;;;23.90;83.53;100622.81;10375994;28;19925;-69
2023/07/28 16:46:28;;;;;;;;;;;;;;;23.78;83.59;100625.03;10375637;28;19949;-69
2023/07/28 16:51:30;;;;;;;;;;;;;;;23.35;83.46;100628.19;10374294;28;20380;-69
2023/07/28 16:56:32;;;;;;;;;;;;;;;23.21;84.17;100626.25;10375206;28;19952;-69
2023/07/28 17:01:35;;;;;;;;;;;;;;;22.81;88.21;100633.38;10375483;28;19932;-69
2023/07/28 17:06:37;;;;;;;;;;;;;;;22.65;83.85;100642.28;10357592;28;19932;-69
2023/07/28 17:11:40;;;;;;;;;;;;;;;23.12;83.17;100638.81;10374938;28;19925;-69
2023/07/28 17:16:42;;;;;;;;;;;;;;;22.28;87.65;100646.34;10374809;28;20011;-69
2023/07/28 17:21:44;;;;;;;;;;;;;;;22.61;86.48;100639.13;10373705;28;20020;-69
2023/07/28 17:26:46;;;;;;;;;;;;;;;22.27;88.88;100634.84;10374479;28;20016;-68
2023/07/28 17:31:49;;;;;;;;;;;;;;;22.25;92.50;100633.31;10374733;28;19951;-69
2023/07/28 17:36:51;;;;;;;;;;;;;;;22.51;91.31;100619.81;10374541;28;20398;-69
2023/07/28 17:41:53;;;;;;;;;;;;;;;21.98;92.62;100630.00;10374502;28;19926;-69
2023/07/28 17:46:55;;;;;;;;;;;;;;;22.50;91.87;100638.66;10374325;28;19926;-69
2023/07/28 17:51:58;;;;;;;;;;;;;;;22.42;89.93;100634.16;10374427;28;19961;-69
2023/07/28 17:57:00;;;;;;;;;;;;;;;22.50;91.13;100633.31;10374326;28;19933;-69
2023/07/28 18:02:03;;;;;;;;;;;;;;;22.43;91.61;100633.16;10374010;28;20030;-69
2023/07/28 18:07:05;;;;;;;;;;;;;;;22.25;89.49;100644.00;10373902;28;19925;-69
2023/07/28 18:12:07;;;;;;;;;;;;;;;22.23;90.29;100638.81;10372533;28;20300;-69
2023/07/28 18:17:10;;;;;;;;;;;;;;;22.27;90.19;100639.31;10373582;28;19925;-69
2023/07/28 18:22:12;;;;;;;;;;;;;;;22.22;90.66;100644.31;10380342;28;20266;-69
2023/07/28 18:27:14;;;;;;;;;;;;;;;21.89;94.75;100639.84;10380652;28;19926;-69
2023/07/28 18:32:16;;;;;;;;;;;;;;;22.01;92.26;100656.34;10380773;28;19926;-69
2023/07/28 18:37:19;;;;;;;;;;;;;;;21.77;96.33;100651.81;10380539;28;19932;-69
2023/07/28 18:42:22;;;;;;;;;;;;;;;21.50;100.00;100653.78;10380298;28;20395;-69
2023/07/28 18:47:24;;;;;;;;;;;;;;;21.19;100.00;100663.28;10380151;28;19933;-68
2023/07/28 18:52:26;;;;;;;;;;;;;;;21.28;100.00;100665.84;10380181;28;19932;-69
2023/07/28 18:57:28;;;;;;;;;;;;;;;20.92;100.00;100673.97;10379676;28;19933;-69
2023/07/28 19:02:31;;;;;;;;;;;;;;;20.97;100.00;100673.50;10379578;28;20288;-69
2023/07/28 19:07:33;;;;;;;;;;;;;;;20.72;100.00;100668.06;10379493;28;19929;-68
2023/07/28 19:12:35;;;;;;;;;;;;;;;20.57;100.00;100670.41;10379098;28;19926;-69
2023/07/28 19:17:37;;;;;;;;;;;;;;;20.40;100.00;100671.31;10377809;28;20435;-69
2023/07/28 19:22:40;;;;;;;;;;;;;;;20.31;100.00;100683.72;10378730;28;20274;-69
2023/07/28 19:27:42;;;;;;;;;;;;;;;20.18;100.00;100675.31;10378324;28;19926;-69
2023/07/28 19:32:44;;;;;;;;;;;;;;;19.88;100.00;100679.19;10378089;28;19948;-69
2023/07/28 19:37:46;;;;;;;;;;;;;;;19.76;100.00;100691.84;10378065;28;19925;-69
2023/07/28 19:42:53;;;;;;;;;;;;;;;19.66;100.00;100687.41;10378007;28;19925;-68
2023/07/28 19:47:55;;;;;;;;;;;;;;;19.54;100.00;100677.97;10377835;28;19926;-68
2023/07/28 19:52:57;;;;;;;;;;;;;;;19.56;100.00;100686.63;10377767;28;19926;-68
2023/07/28 19:58:01;;;;;;;;;;;;;;;19.15;100.00;100685.31;10377394;28;19933;-69
2023/07/28 20:03:03;;;;;;;;;;;;;;;19.08;100.00;100690.34;10376242;28;19953;-68
2023/07/28 20:08:06;;;;;;;;;;;;;;;19.06;100.00;100689.69;10377150;28;20016;-69
2023/07/28 20:13:08;;;;;;;;;;;;;;;19.07;100.00;100686.06;10376927;28;20295;-68
2023/07/28 20:18:10;;;;;;;;;;;;;;;18.92;100.00;100693.66;10376773;28;19933;-68
2023/07/28 20:23:14;;;;;;;;;;;;;;;18.99;100.00;100685.94;10376438;28;19995;-68
2023/07/28 20:28:16;;;;;;;;;;;;;;;19.03;100.00;100682.00;10376373;28;19925;-68
2023/07/28 20:33:18;;;;;;;;;;;;;;;19.01;100.00;100686.63;10376096;28;19929;-68
2023/07/28 20:38:21;;;;;;;;;;;;;;;18.99;100.00;100697.38;10375863;28;19949;-68
2023/07/28 20:43:23;;;;;;;;;;;;;;;18.96;100.00;100687.06;10375361;28;19930;-68
2023/07/28 20:48:25;;;;;;;;;;;;;;;19.14;100.00;100681.00;10375605;28;19926;-68
2023/07/28 20:53:31;;;;;;;;;;;;;;;19.21;100.00;100677.59;10374584;28;19926;-68
2023/07/28 20:58:33;;;;;;;;;;;;;;;19.10;100.00;100675.16;10375303;28;19929;-68
2023/07/28 21:03:35;;;;;;;;;;;;;;;19.22;100.00;100684.59;10375387;28;19925;-68
2023/07/28 21:08:38;;;;;;;;;;;;;;;19.19;100.00;100676.91;10374087;28;19932;-68
2023/07/28 21:13:40;;;;;;;;;;;;;;;19.37;100.00;100678.78;10373798;28;19925;-69
2023/07/28 21:18:42;;;;;;;;;;;;;;;19.22;100.00;100689.06;10374979;28;19926;-68
2023/07/28 21:23:44;;;;;;;;;;;;;;;19.04;100.00;100689.00;10374770;28;19933;-68
2023/07/28 21:28:47;;;;;;;;;;;;;;;19.12;100.00;100679.31;10374541;28;19933;-68
2023/07/28 21:33:50;;;;;;;;;;;;;;;18.92;100.00;100691.00;10373408;28;19929;-68
2023/07/28 21:38:52;;;;;;;;;;;;;;;19.10;100.00;100685.78;10374332;28;20000;-69
2023/07/28 21:43:56;;;;;;;;;;;;;;;18.97;100.00;100690.56;10374296;28;19932;-68
2023/07/28 21:48:58;;;;;;;;;;;;;;;19.04;100.00;100689.81;10356918;28;19952;-68
2023/07/28 21:54:01;;;;;;;;;;;;;;;19.01;100.00;100682.16;10376674;28;20284;-68
2023/07/28 21:59:03;;;;;;;;;;;;;;;18.92;100.00;100675.91;10381967;28;20439;-68
2023/07/28 22:04:05;;;;;;;;;;;;;;;18.84;100.00;100690.88;10381915;28;19925;-68
2023/07/28 22:09:08;;;;;;;;;;;;;;;18.67;100.00;100680.00;10381672;28;19930;-69
2023/07/28 22:14:10;;;;;;;;;;;;;;;18.81;100.00;100677.88;10381530;28;19971;-68
2023/07/28 22:19:13;;;;;;;;;;;;;;;18.80;100.00;100670.91;10381364;28;19925;-68
2023/07/28 22:24:15;;;;;;;;;;;;;;;18.61;100.00;100671.78;10381081;28;20284;-68
2023/07/28 22:29:17;;;;;;;;;;;;;;;18.57;100.00;100664.09;10380930;28;20391;-68
2023/07/28 22:34:19;;;;;;;;;;;;;;;18.40;100.00;100664.84;10380814;28;19930;-69
2023/07/28 22:39:22;;;;;;;;;;;;;;;18.41;100.00;100661.25;10380517;28;19996;-68
2023/07/28 22:44:24;;;;;;;;;;;;;;;18.35;100.00;100661.78;10380509;28;19932;-68
2023/07/28 22:49:26;;;;;;;;;;;;;;;18.21;100.00;100663.06;10380143;28;19926;-69
2023/07/28 22:54:28;;;;;;;;;;;;;;;17.98;100.00;100668.66;10380053;28;20414;-68
2023/07/28 22:59:31;;;;;;;;;;;;;;;18.04;100.00;100669.06;10379795;28;19925;-68
2023/07/28 23:04:33;;;;;;;;;;;;;;;18.09;100.00;100667.69;10379206;28;20016;-68
2023/07/28 23:09:36;;;;;;;;;;;;;;;17.92;100.00;100669.22;10379468;28;19925;-68
2023/07/28 23:14:38;;;;;;;;;;;;;;;17.96;100.00;100675.91;10379181;28;19925;-68
2023/07/28 23:19:40;;;;;;;;;;;;;;;18.18;100.00;100672.13;10379197;28;19932;-68
2023/07/28 23:24:42;;;;;;;;;;;;;;;17.91;100.00;100674.66;10378789;28;19932;-68
2023/07/28 23:29:45;;;;;;;;;;;;;;;17.78;100.00;100675.72;10378552;28;20008;-68
2023/07/28 23:34:48;;;;;;;;;;;;;;;17.82;100.00;100660.41;10378449;28;19964;-68
2023/07/28 23:39:50;;;;;;;;;;;;;;;17.87;100.00;100662.66;10378186;28;20278;-68
2023/07/28 23:44:52;;;;;;;;;;;;;;;17.74;100.00;100671.69;10377991;28;20285;-68
2023/07/28 23:49:55;;;;;;;;;;;;;;;17.67;100.00;100680.28;10377827;28;20372;-69
2023/07/28 23:54:57;;;;;;;;;;;;;;;17.82;100.00;100674.47;10360339;28;20012;-68
2023/07/28 23:59:59;;;;;;;;;;;;;;;17.71;100.00;100666.66;10377434;28;19926;-69
